Time;durP1;ratioP1;P1;durP2;ratioP2;P2;SDS_P1;SDS_P2;PMS_P1;PMS_P2;Temp;Humidity;BMP_temperature;BMP_pressure;BME280_temperature;BME280_humidity;BME280_pressure;Samples;Min_cycle;Max_cycle;Signal;HPM_P1;HPM_P2
2022/03/19 00:01:37;;;;;;;15.23;8.35;;;;;;;-1.42;94.69;101292.06;4167851;28;20040;-70
2022/03/19 00:03:37;;;;;;;13.43;7.80;;;;;;;-1.49;94.83;101291.38;4168101;28;20041;-70
2022/03/19 00:05:38;;;;;;;13.93;7.50;;;;;;;-1.52;95.58;101288.25;4170770;28;20476;-71
2022/03/19 00:07:40;;;;;;;18.70;8.48;;;;;;;-1.55;95.49;101289.56;4168927;28;20036;-72
2022/03/19 00:09:41;;;;;;;;;;;;;;;-1.56;95.78;101289.78;4170643;28;20041;-71
2022/03/19 00:11:42;;;;;;;17.02;8.32;;;;;;;-1.53;95.49;101294.75;4168983;28;20358;-72
2022/03/19 00:13:42;;;;;;;15.50;8.30;;;;;;;-1.60;96.25;101297.56;4170040;28;20295;-71
2022/03/19 00:15:42;;;;;;;19.30;8.85;;;;;;;-1.66;96.32;101306.59;4169784;28;20033;-71
2022/03/19 00:17:43;;;;;;;12.65;7.60;;;;;;;-1.74;97.50;101307.78;4169087;28;20045;-72
2022/03/19 00:19:43;;;;;;;15.30;7.80;;;;;;;-1.79;97.35;101304.91;4169417;28;20039;-72
2022/03/19 00:21:44;;;;;;;16.25;8.32;;;;;;;-1.83;97.79;101298.25;4167949;28;20120;-72
2022/03/19 00:23:46;;;;;;;19.33;8.90;;;;;;;-1.82;98.17;101308.09;4170578;28;20126;-71
2022/03/19 00:25:47;;;;;;;13.98;8.15;;;;;;;-1.83;98.53;101303.69;4168409;28;20117;-72
2022/03/19 00:27:47;;;;;;;17.58;8.05;;;;;;;-1.80;98.61;101305.97;4170233;28;20033;-71
2022/03/19 00:29:47;;;;;;;15.82;8.55;;;;;;;-1.79;98.47;101306.78;4170962;28;20457;-71
2022/03/19 00:31:48;;;;;;;10.77;7.22;;;;;;;-1.69;98.68;101307.06;4171487;28;20179;-71
2022/03/19 00:33:48;;;;;;;15.32;8.25;;;;;;;-1.69;98.24;101312.50;4170046;28;20132;-72
2022/03/19 00:35:48;;;;;;;14.43;7.55;;;;;;;-1.73;98.29;101306.72;4169868;28;20069;-71
2022/03/19 00:37:50;;;;;;;14.55;8.38;;;;;;;-1.75;98.07;101300.66;4170150;28;20435;-71
2022/03/19 00:39:51;;;;;;;13.18;7.55;;;;;;;-1.76;98.36;101301.72;4170773;28;20743;-71
2022/03/19 00:41:54;;;;;;;12.60;7.05;;;;;;;-1.78;98.09;101292.16;4171486;28;20041;-71
2022/03/19 00:43:55;;;;;;;12.15;7.15;;;;;;;-1.82;98.60;101299.94;4171993;28;20834;-71
2022/03/19 00:45:55;;;;;;;14.32;7.88;;;;;;;-1.80;98.17;101305.13;4172571;28;20064;-71
2022/03/19 00:47:56;;;;;;;14.70;7.63;;;;;;;-1.81;97.54;101298.06;4168985;28;20041;-71
2022/03/19 00:49:56;;;;;;;12.32;7.53;;;;;;;-1.89;97.43;101287.50;4171023;28;20109;-72
2022/03/19 00:51:56;;;;;;;16.15;7.97;;;;;;;-1.89;97.97;101292.94;4171838;28;20052;-72
2022/03/19 00:53:56;;;;;;;16.25;8.13;;;;;;;-1.93;98.30;101295.25;4170370;28;20048;-72
2022/03/19 00:55:57;;;;;;;15.80;8.40;;;;;;;-2.04;99.30;101287.88;4171864;28;20041;-72
2022/03/19 00:57:57;;;;;;;16.05;8.65;;;;;;;-2.06;100.00;101282.69;4170848;28;20472;-72
2022/03/19 00:59:59;;;;;;;16.10;8.70;;;;;;;-2.02;100.00;101286.59;4171984;28;20447;-72
2022/03/19 01:02:00;;;;;;;17.83;9.03;;;;;;;-2.00;99.36;101275.50;4171200;28;20037;-72
2022/03/19 01:04:00;;;;;;;15.48;8.65;;;;;;;-2.01;99.34;101273.84;4171170;28;20272;-72
2022/03/19 01:06:01;;;;;;;16.30;8.32;;;;;;;-1.93;98.83;101275.44;4171729;28;20065;-72
2022/03/19 01:08:01;;;;;;;12.95;7.60;;;;;;;-1.83;97.67;101270.28;4169886;28;20025;-72
2022/03/19 01:10:02;;;;;;;15.38;7.20;;;;;;;-1.77;96.68;101275.63;4172329;28;20466;-73
2022/03/19 01:12:02;;;;;;;15.07;7.18;;;;;;;-1.71;97.87;101265.75;4170160;28;20188;-72
2022/03/19 01:14:03;;;;;;;14.05;7.57;;;;;;;-1.70;97.56;101273.66;4170468;28;20033;-72
2022/03/19 01:16:03;;;;;;;16.67;7.75;;;;;;;-1.62;96.22;101272.53;4170036;28;20028;-73
2022/03/19 01:18:04;;;;;;;14.13;7.47;;;;;;;-1.63;96.69;101270.88;4170830;28;20198;-72
2022/03/19 01:20:06;;;;;;;11.10;6.38;;;;;;;-1.58;97.15;101265.56;4170810;28;20041;-72
2022/03/19 01:22:06;;;;;;;11.60;7.68;;;;;;;-1.59;97.31;101272.06;4170487;28;20071;-72
2022/03/19 01:24:07;;;;;;;15.27;8.32;;;;;;;-1.57;97.51;101264.53;4169093;28;20068;-72
2022/03/19 01:26:07;;;;;;;16.27;8.00;;;;;;;-1.57;97.43;101263.69;4170285;28;20104;-72
2022/03/19 01:28:08;;;;;;;11.05;6.90;;;;;;;-1.55;97.32;101258.88;4169151;28;20112;-72
2022/03/19 01:30:11;;;;;;;14.88;7.13;;;;;;;-1.54;97.78;101253.19;4171761;28;20305;-72
2022/03/19 01:32:12;;;;;;;15.00;7.28;;;;;;;-1.51;97.50;101247.28;4171026;28;20029;-72
2022/03/19 01:34:12;;;;;;;13.73;6.53;;;;;;;-1.50;96.81;101253.56;4170525;28;20057;-72
2022/03/19 01:36:12;;;;;;;15.68;7.10;;;;;;;-1.45;95.79;101251.81;4171143;28;20029;-72
2022/03/19 01:38:13;;;;;;;11.60;7.13;;;;;;;-1.55;96.11;101254.25;4170365;28;20041;-72
2022/03/19 01:40:14;;;;;;;15.02;7.25;;;;;;;-1.59;96.61;101250.34;4171091;28;20079;-72
2022/03/19 01:42:23;;;;;;;12.30;6.33;;;;;;;-1.59;96.86;101242.19;4170190;28;20059;-72
2022/03/19 01:44:24;;;;;;;12.55;6.30;;;;;;;-1.60;96.50;101243.25;4170194;28;20638;-72
2022/03/19 01:46:24;;;;;;;14.73;6.40;;;;;;;-1.63;96.73;101240.19;4171077;28;20060;-72
2022/03/19 01:48:25;;;;;;;13.40;6.78;;;;;;;-1.62;97.79;101242.66;4169861;28;20421;-72
2022/03/19 01:50:26;;;;;;;10.65;6.72;;;;;;;-1.57;97.22;101234.66;4170600;28;20041;-72
2022/03/19 01:52:28;;;;;;;12.45;6.53;;;;;;;-1.56;96.96;101239.03;4170759;28;20526;-72
2022/03/19 01:54:32;;;;;;;11.30;6.88;;;;;;;-1.59;96.72;101235.94;4170395;28;20124;-72
2022/03/19 01:56:33;;;;;;;10.65;6.00;;;;;;;-1.60;96.88;101237.81;4171317;28;20049;-72
2022/03/19 01:58:35;;;;;;;11.63;6.63;;;;;;;-1.66;96.71;101235.19;4170023;28;20041;-72
2022/03/19 02:00:36;;;;;;;15.20;6.40;;;;;;;-1.72;96.34;101232.38;4170455;28;20686;-72
2022/03/19 02:02:37;;;;;;;13.02;7.60;;;;;;;-1.78;96.67;101230.56;4170961;28;20033;-72
2022/03/19 02:04:40;;;;;;;14.65;6.35;;;;;;;-1.81;96.99;101231.03;4166755;28;20048;-72
2022/03/19 02:06:43;;;;;;;12.00;6.00;;;;;;;-1.86;98.13;101232.75;4167990;28;20049;-71
2022/03/19 02:08:44;;;;;;;10.98;5.90;;;;;;;-1.91;98.35;101230.72;4170351;28;20068;-72
2022/03/19 02:10:45;;;;;;;10.93;6.32;;;;;;;-1.95;98.35;101232.25;4170783;28;20144;-72
2022/03/19 02:12:45;;;;;;;13.20;6.28;;;;;;;-2.00;98.06;101237.53;4169558;28;20523;-71
2022/03/19 02:14:47;;;;;;;16.95;7.10;;;;;;;-2.00;98.55;101242.94;4170508;28;20040;-72
2022/03/19 02:16:49;;;;;;;12.85;6.75;;;;;;;-2.09;98.77;101249.75;4168931;28;20067;-71
2022/03/19 02:18:49;;;;;;;12.10;6.50;;;;;;;-2.19;100.00;101239.44;4169886;28;20132;-72
2022/03/19 02:20:55;;;;;;;11.27;6.57;;;;;;;-2.21;100.00;101248.84;4169983;28;20087;-72
2022/03/19 02:27:34;;;;;;;11.23;6.00;;;;;;;-2.28;100.00;101240.78;4169149;28;20645;-71
2022/03/19 02:29:34;;;;;;;17.85;6.15;;;;;;;-2.26;100.00;101238.69;4169607;28;20049;-71
2022/03/19 02:31:37;;;;;;;11.13;6.47;;;;;;;-2.19;100.00;101242.16;4170274;28;20124;-72
2022/03/19 02:33:38;;;;;;;10.75;6.95;;;;;;;-2.12;100.00;101245.59;4169473;28;20055;-72
2022/03/19 02:35:38;;;;;;;11.75;6.35;;;;;;;-1.98;98.93;101240.84;4169783;28;20136;-72
2022/03/19 02:37:43;;;;;;;13.20;6.10;;;;;;;-1.84;96.08;101230.63;4168601;28;20037;-72
2022/03/19 02:39:43;;;;;;;13.77;6.30;;;;;;;-1.80;96.16;101231.84;4170090;28;20049;-71
2022/03/19 02:41:46;;;;;;;11.45;5.82;;;;;;;-1.75;94.22;101235.50;4170162;28;20086;-72
2022/03/19 02:43:48;;;;;;;12.30;5.97;;;;;;;-1.75;93.84;101230.09;4170366;28;20131;-72
2022/03/19 02:45:49;;;;;;;16.33;6.90;;;;;;;-1.73;94.17;101224.47;4169209;28;20100;-71
2022/03/19 02:47:59;;;;;;;13.98;6.50;;;;;;;-1.65;94.00;101220.59;4170053;28;20377;-72
2022/03/19 02:49:59;;;;;;;11.82;6.68;;;;;;;-1.62;93.28;101229.09;4168415;28;20037;-72
2022/03/19 02:52:00;;;;;;;14.18;6.47;;;;;;;-1.58;93.31;101222.13;4169385;28;20330;-72
2022/03/19 02:54:03;;;;;;;14.55;7.13;;;;;;;-1.52;91.88;101226.63;4170491;28;20381;-72
2022/03/19 02:56:03;;;;;;;;;;;;;;;-1.52;91.55;101223.09;4171105;28;20726;-71
2022/03/19 02:58:06;;;;;;;10.68;6.05;;;;;;;-1.51;91.16;101230.19;4168543;28;19920;-72
2022/03/19 03:00:07;;;;;;;9.90;6.30;;;;;;;-1.52;91.00;101225.81;4169761;28;20090;-72
2022/03/19 03:02:10;;;;;;;13.13;6.90;;;;;;;-1.56;91.50;101224.63;4169914;28;20037;-72
2022/03/19 03:04:10;;;;;;;11.07;6.60;;;;;;;-1.58;92.09;101232.16;4169380;28;20029;-72
2022/03/19 03:06:11;;;;;;;14.15;6.90;;;;;;;-1.60;92.36;101229.69;4168946;28;20090;-72
2022/03/19 03:08:11;;;;;;;11.93;6.68;;;;;;;-1.61;93.70;101232.63;4169227;28;20461;-72
2022/03/19 03:10:15;;;;;;;11.43;6.32;;;;;;;-1.60;94.68;101231.56;4169774;28;20296;-72
2022/03/19 03:12:15;;;;;;;15.88;7.43;;;;;;;-1.57;94.65;101231.94;4168900;28;20025;-72
2022/03/19 03:14:19;;;;;;;12.13;6.50;;;;;;;-1.62;95.22;101223.66;4169525;28;20388;-72
2022/03/19 03:16:19;;;;;;;14.48;7.22;;;;;;;-1.55;94.46;101229.00;4168831;28;20079;-72
2022/03/19 03:18:20;;;;;;;12.27;6.65;;;;;;;-1.52;93.87;101223.09;4168484;28;20388;-72
2022/03/19 03:20:20;;;;;;;12.32;7.20;;;;;;;-1.54;93.68;101226.06;4170042;28;20168;-72
2022/03/19 03:22:21;;;;;;;10.77;6.28;;;;;;;-1.58;93.90;101205.84;4168447;28;20358;-72
2022/03/19 03:24:22;;;;;;;12.85;6.90;;;;;;;-1.54;93.78;101217.91;4168703;28;20048;-72
2022/03/19 03:26:23;;;;;;;15.88;6.70;;;;;;;-1.46;93.45;101201.28;4169717;28;20156;-72
2022/03/19 03:28:23;;;;;;;11.93;5.45;;;;;;;-1.43;93.29;101211.66;4168864;28;20092;-72
2022/03/19 03:30:23;;;;;;;13.25;6.05;;;;;;;-1.39;93.05;101212.03;4168785;28;20037;-71
2022/03/19 03:32:24;;;;;;;9.68;5.63;;;;;;;-1.34;92.62;101214.88;4168214;28;20084;-71
2022/03/19 03:34:24;;;;;;;13.50;6.07;;;;;;;-1.32;92.59;101210.06;4168837;28;20053;-72
2022/03/19 03:36:24;;;;;;;9.68;5.22;;;;;;;-1.29;91.70;101214.19;4169401;28;20136;-71
2022/03/19 03:38:25;;;;;;;11.65;5.68;;;;;;;-1.29;91.92;101212.28;4168609;28;20045;-72
2022/03/19 03:40:25;;;;;;;9.32;4.65;;;;;;;-1.35;92.45;101209.69;4169844;28;20037;-72
2022/03/19 03:42:26;;;;;;;11.15;5.35;;;;;;;-1.38;93.31;101224.56;4168396;28;20057;-72
2022/03/19 03:44:26;;;;;;;9.75;5.30;;;;;;;-1.42;94.01;101212.50;4169682;28;20087;-72
2022/03/19 03:46:27;;;;;;;10.07;5.70;;;;;;;-1.40;93.20;101215.81;4168823;28;20251;-72
2022/03/19 03:48:27;;;;;;;13.73;5.50;;;;;;;-1.39;93.97;101206.63;4168461;28;20529;-72
2022/03/19 03:50:28;;;;;;;11.65;5.53;;;;;;;-1.39;94.02;101213.94;4169687;28;20045;-72
2022/03/19 03:52:30;;;;;;;10.27;5.50;;;;;;;-1.38;94.49;101223.72;4168975;28;20521;-72
2022/03/19 03:54:30;;;;;;;12.13;6.57;;;;;;;-1.40;95.19;101221.25;4168475;28;20033;-70
2022/03/19 03:56:31;;;;;;;9.48;5.53;;;;;;;-1.43;96.55;101233.38;4166777;28;20132;-72
2022/03/19 03:58:32;;;;;;;13.00;6.57;;;;;;;-1.43;96.44;101221.69;4168361;28;20396;-72
2022/03/19 04:00:34;;;;;;;10.68;6.43;;;;;;;-1.45;96.46;101221.13;4168592;28;20041;-72
2022/03/19 04:02:37;;;;;;;10.35;6.07;;;;;;;-1.44;95.83;101223.59;4167587;28;20088;-72
2022/03/19 04:04:38;;;;;;;11.48;6.38;;;;;;;-1.40;95.67;101225.88;4168411;28;20481;-72
2022/03/19 04:06:38;;;;;;;10.18;5.72;;;;;;;-1.39;95.82;101219.38;4168604;28;20128;-71
2022/03/19 04:08:38;;;;;;;10.82;6.00;;;;;;;-1.38;95.65;101216.41;4169707;28;20373;-72
2022/03/19 04:10:39;;;;;;;9.75;5.68;;;;;;;-1.35;95.37;101224.09;4170123;28;20048;-72
2022/03/19 04:12:39;;;;;;;9.63;5.68;;;;;;;-1.34;95.30;101220.31;4167922;28;20502;-72
2022/03/19 04:14:39;;;;;;;9.35;5.68;;;;;;;-1.34;95.51;101212.16;4168957;28;20111;-72
2022/03/19 04:16:40;;;;;;;11.07;5.75;;;;;;;-1.33;96.48;101210.25;4166625;28;20075;-71
2022/03/19 04:18:41;;;;;;;13.10;5.88;;;;;;;-1.36;97.28;101200.72;4167732;28;20052;-71
2022/03/19 04:20:41;;;;;;;10.85;5.95;;;;;;;-1.30;96.13;101207.94;4168109;28;20046;-71
2022/03/19 04:22:43;;;;;;;13.13;5.68;;;;;;;-1.31;96.33;101203.56;4169362;28;20048;-71
2022/03/19 04:24:44;;;;;;;11.82;6.45;;;;;;;-1.30;96.33;101210.66;4169256;28;20377;-71
2022/03/19 04:26:44;;;;;;;13.38;6.45;;;;;;;-1.29;96.94;101212.28;4168015;28;20037;-72
2022/03/19 04:28:44;;;;;;;11.82;6.75;;;;;;;-1.30;96.87;101196.25;4169034;28;20043;-71
2022/03/19 04:30:45;;;;;;;11.50;5.55;;;;;;;-1.31;97.43;101192.69;4169455;28;20574;-71
2022/03/19 04:32:47;;;;;;;10.45;5.70;;;;;;;-1.28;96.52;101192.22;4168435;28;20368;-71
2022/03/19 04:34:48;;;;;;;13.48;6.57;;;;;;;-1.27;96.35;101193.88;4169022;28;20103;-71
2022/03/19 04:36:48;;;;;;;10.05;5.85;;;;;;;-1.27;96.62;101183.00;4168858;28;20045;-71
2022/03/19 04:38:48;;;;;;;12.50;6.13;;;;;;;-1.30;96.73;101180.75;4167959;28;20044;-71
2022/03/19 04:40:52;;;;;;;11.60;6.15;;;;;;;-1.28;97.23;101185.97;4168911;28;20472;-71
2022/03/19 04:42:52;;;;;;;11.45;6.05;;;;;;;-1.32;97.39;101182.91;4168542;28;20052;-71
2022/03/19 04:44:52;;;;;;;10.90;5.78;;;;;;;-1.32;97.14;101182.06;4169588;28;20040;-71
2022/03/19 04:46:53;;;;;;;15.93;6.78;;;;;;;-1.35;97.24;101191.50;4166825;28;20064;-71
2022/03/19 04:48:53;;;;;;;13.73;6.25;;;;;;;-1.32;97.21;101188.34;4167920;28;20442;-71
2022/03/19 04:50:54;;;;;;;10.30;6.22;;;;;;;-1.29;97.10;101195.19;4171573;28;20057;-72
2022/03/19 04:52:54;;;;;;;12.65;6.53;;;;;;;-1.33;96.72;101183.94;4171159;28;20476;-72
2022/03/19 04:54:57;;;;;;;11.82;6.50;;;;;;;-1.37;97.05;101185.47;4171603;28;20037;-72
2022/03/19 04:56:58;;;;;;;15.45;7.22;;;;;;;-1.43;97.96;101189.94;4171008;28;20371;-71
2022/03/19 04:59:00;;;;;;;14.60;6.25;;;;;;;-1.45;98.61;101183.09;4172264;28;20092;-72
2022/03/19 05:01:01;;;;;;;16.20;7.13;;;;;;;-1.46;98.62;101193.13;4170446;28;20045;-72
2022/03/19 05:03:02;;;;;;;11.85;6.30;;;;;;;-1.45;98.10;101191.25;4171866;28;20415;-72
2022/03/19 05:05:03;;;;;;;11.65;5.53;;;;;;;-1.48;97.97;101194.44;4172527;28;20423;-72
2022/03/19 05:07:03;;;;;;;11.93;6.70;;;;;;;-1.50;98.83;101182.94;4170268;28;20087;-72
2022/03/19 05:11:23;;;;;;;14.52;6.20;;;;;;;-1.49;99.19;101195.47;4172248;28;20122;-71
2022/03/19 05:13:23;;;;;;;11.43;6.32;;;;;;;-1.45;100.00;101183.91;4170916;28;20056;-71
2022/03/19 05:15:23;;;;;;;11.90;6.25;;;;;;;-1.40;99.15;101194.09;4169547;28;20041;-71
2022/03/19 05:17:24;;;;;;;12.60;6.18;;;;;;;-1.38;97.72;101185.72;4170235;28;20481;-71
2022/03/19 05:19:25;;;;;;;17.98;6.78;;;;;;;-1.36;97.68;101187.13;4170568;28;20041;-71
2022/03/19 05:21:27;;;;;;;10.48;5.68;;;;;;;-1.33;97.20;101185.81;4170869;28;20044;-72
2022/03/19 05:23:27;;;;;;;10.25;6.10;;;;;;;-1.34;96.96;101190.44;4169915;28;20350;-72
2022/03/19 05:25:27;;;;;;;16.08;6.88;;;;;;;-1.34;96.73;101192.31;4171726;28;20060;-72
2022/03/19 05:27:28;;;;;;;13.10;7.00;;;;;;;-1.37;97.46;101184.66;4170751;28;20056;-72
2022/03/19 05:29:31;;;;;;;16.83;7.13;;;;;;;-1.37;96.09;101193.63;4170140;28;20449;-72
2022/03/19 05:31:31;;;;;;;;;;;;;;;-1.34;97.77;101182.28;4170938;28;20052;-71
2022/03/19 05:35:51;;;;;;;18.85;7.28;;;;;;;-1.27;97.24;101191.16;4170731;28;20444;-72
2022/03/19 05:37:51;;;;;;;16.52;7.30;;;;;;;-1.26;97.12;101181.94;4170454;28;20247;-72
2022/03/19 05:39:54;;;;;;;11.43;6.78;;;;;;;-1.24;96.81;101188.00;4171324;28;20527;-72
2022/03/19 05:41:54;;;;;;;13.48;6.93;;;;;;;-1.22;94.16;101185.03;4171106;28;20317;-71
2022/03/19 05:43:55;;;;;;;14.82;7.53;;;;;;;-1.21;95.58;101175.81;4169849;28;20079;-71
2022/03/19 05:45:55;;;;;;;16.23;6.70;;;;;;;-1.17;95.39;101182.41;4170645;28;20053;-72
2022/03/19 05:47:55;;;;;;;13.35;7.35;;;;;;;-1.10;96.27;101183.13;4170614;28;20037;-72
2022/03/19 05:49:56;;;;;;;12.73;6.22;;;;;;;-1.03;98.96;101183.84;4170848;28;20043;-72
2022/03/19 05:51:57;;;;;;;9.90;5.90;;;;;;;-0.97;99.39;101190.25;4170879;28;20048;-72
2022/03/19 05:53:57;;;;;;;11.93;6.30;;;;;;;-0.94;99.33;101189.78;4171204;28;20531;-72
2022/03/19 05:55:58;;;;;;;15.23;6.70;;;;;;;-0.94;98.36;101179.72;4169726;28;20049;-72
2022/03/19 05:57:58;;;;;;;10.45;5.60;;;;;;;-0.96;97.63;101186.47;4170459;28;20665;-72
2022/03/19 05:59:59;;;;;;;14.82;5.43;;;;;;;-0.97;96.83;101180.22;4169789;28;20359;-72
2022/03/19 06:02:00;;;;;;;11.10;6.32;;;;;;;-0.99;96.11;101171.47;4171227;28;20432;-72
2022/03/19 06:04:00;;;;;;;11.70;5.72;;;;;;;-0.98;95.85;101185.88;4171117;28;20412;-72
2022/03/19 06:06:00;;;;;;;16.20;7.20;;;;;;;-1.00;96.21;101168.97;4170374;28;20152;-72
2022/03/19 06:08:01;;;;;;;15.75;7.28;;;;;;;-1.02;96.54;101166.50;4170459;28;20195;-72
2022/03/19 06:10:04;;;;;;;14.40;6.28;;;;;;;-0.99;96.30;101173.38;4170474;28;20662;-72
2022/03/19 06:12:05;;;;;;;15.15;7.35;;;;;;;-1.01;95.44;101179.00;4170858;28;20366;-72
2022/03/19 06:14:05;;;;;;;12.60;6.97;;;;;;;-0.99;95.59;101186.94;4170878;28;20086;-72
2022/03/19 06:16:06;;;;;;;25.40;9.52;;;;;;;-1.01;96.80;101187.16;4170645;28;20028;-72
2022/03/19 06:18:06;;;;;;;22.27;10.23;;;;;;;-0.99;97.46;101187.78;4170181;28;20055;-72
2022/03/19 06:20:07;;;;;;;26.17;11.52;;;;;;;-1.00;96.97;101185.25;4169569;28;20419;-72
2022/03/19 06:22:07;;;;;;;25.15;11.50;;;;;;;-1.01;96.27;101183.63;4170932;28;20103;-72
2022/03/19 06:24:09;;;;;;;36.22;14.80;;;;;;;-1.02;95.95;101171.91;4170104;28;20431;-72
2022/03/19 06:26:10;;;;;;;29.25;13.65;;;;;;;-0.98;95.42;101177.72;4170846;28;20441;-72
2022/03/19 06:28:10;;;;;;;25.10;11.57;;;;;;;-0.94;95.36;101182.44;4168709;28;20060;-72
2022/03/19 06:30:11;;;;;;;27.95;12.02;;;;;;;-0.93;94.42;101183.25;4170164;28;20051;-72
2022/03/19 06:32:12;;;;;;;20.25;10.02;;;;;;;-0.88;94.05;101181.50;4170293;28;20036;-72
2022/03/19 06:34:12;;;;;;;26.05;11.30;;;;;;;-0.79;93.69;101179.25;4169039;28;20156;-72
2022/03/19 06:38:32;;;;;;;16.70;7.22;;;;;;;-0.64;96.72;101163.28;4169780;28;20063;-72
2022/03/19 06:40:35;;;;;;;17.90;8.65;;;;;;;-0.61;96.06;101162.78;4167447;28;20037;-72
2022/03/19 06:42:35;;;;;;;21.25;9.45;;;;;;;-0.53;95.35;101158.06;4170017;28;20049;-72
2022/03/19 06:44:38;;;;;;;20.27;10.07;;;;;;;-0.52;93.97;101167.88;4170260;28;20044;-72
2022/03/19 06:46:39;;;;;;;17.88;9.50;;;;;;;-0.49;94.21;101168.22;4168742;28;20051;-71
2022/03/19 06:48:39;;;;;;;31.33;13.90;;;;;;;-0.44;96.36;101165.59;4169265;28;20457;-72
2022/03/19 06:50:39;;;;;;;30.10;12.95;;;;;;;-0.43;97.34;101155.53;4170611;28;20041;-71
2022/03/19 06:52:40;;;;;;;22.40;11.02;;;;;;;-0.40;96.52;101158.63;4170528;28;20053;-72
2022/03/19 06:54:40;;;;;;;21.75;9.90;;;;;;;-0.34;97.24;101162.25;4169632;28;20334;-72
2022/03/19 06:56:40;;;;;;;22.67;9.32;;;;;;;-0.26;99.85;101155.63;4169147;28;20396;-71
2022/03/19 06:58:41;;;;;;;19.45;9.23;;;;;;;-0.19;99.85;101153.59;4169902;28;20040;-72
2022/03/19 07:00:41;;;;;;;14.40;6.82;;;;;;;-0.02;100.00;101159.91;4168911;28;20493;-72
2022/03/19 07:02:50;;;;;;;11.80;6.95;;;;;;;0.13;100.00;101149.31;4170343;28;20049;-72
2022/03/19 07:04:50;;;;;;;12.85;6.15;;;;;;;0.28;100.00;101159.66;4169800;28;20080;-71
2022/03/19 07:06:51;;;;;;;13.13;6.07;;;;;;;0.42;100.00;101147.41;4168720;28;20428;-72
2022/03/19 07:08:51;;;;;;;9.45;5.55;;;;;;;0.53;98.64;101153.84;4167337;28;20049;-71
2022/03/19 07:10:52;;;;;;;10.18;5.15;;;;;;;0.62;97.81;101146.09;4165020;28;20045;-72
2022/03/19 07:12:53;;;;;;;12.20;5.55;;;;;;;0.77;96.23;101146.34;4113559;28;20117;-72
2022/03/19 07:14:54;;;;;;;13.80;4.93;;;;;;;0.87;96.12;101134.75;4182447;28;20056;-72
2022/03/19 07:16:55;;;;;;;11.50;5.30;;;;;;;1.01;94.73;101145.09;4192128;28;20304;-72
2022/03/19 07:18:56;;;;;;;10.57;5.80;;;;;;;1.10;95.16;101140.03;4191417;28;20044;-71
2022/03/19 07:20:56;;;;;;;13.88;6.60;;;;;;;1.17;95.03;101140.69;4189474;28;20370;-71
2022/03/19 07:23:01;;;;;;;11.05;5.70;;;;;;;1.24;94.97;101141.34;4190337;28;20619;-71
2022/03/19 07:25:02;;;;;;;10.18;5.63;;;;;;;1.29;93.69;101146.00;4197555;28;20772;-71
2022/03/19 07:27:02;;;;;;;16.38;6.70;;;;;;;1.30;92.97;101140.31;4192245;28;20040;-71
2022/03/19 07:29:03;;;;;;;11.52;5.18;;;;;;;1.38;94.25;101133.59;4191347;28;20083;-71
2022/03/19 07:31:03;;;;;;;11.57;5.25;;;;;;;1.48;92.43;101143.81;4195658;28;20059;-71
2022/03/19 07:33:04;;;;;;;13.32;5.35;;;;;;;1.50;92.20;101138.94;4191175;28;20056;-71
2022/03/19 07:35:06;;;;;;;11.20;5.75;;;;;;;1.59;93.28;101140.97;4191995;28;20041;-71
2022/03/19 07:37:06;;;;;;;13.27;4.90;;;;;;;1.69;90.98;101146.53;4192768;28;20044;-71
2022/03/19 07:39:06;;;;;;;11.48;5.90;;;;;;;1.73;89.93;101141.38;4189213;28;20105;-71
2022/03/19 07:43:26;;;;;;;10.50;5.20;;;;;;;1.84;89.77;101142.34;4190562;28;20118;-71
2022/03/19 07:45:26;;;;;;;12.57;5.22;;;;;;;1.88;90.59;101144.31;4198059;28;20040;-72
2022/03/19 07:47:27;;;;;;;15.23;5.07;;;;;;;1.93;89.33;101143.56;4187689;28;20048;-71
2022/03/19 07:49:27;;;;;;;10.75;5.53;;;;;;;1.96;88.26;101143.84;4190735;28;20675;-71
2022/03/19 07:51:28;;;;;;;15.88;5.25;;;;;;;1.97;87.75;101153.69;4193702;28;20048;-71
2022/03/19 07:53:29;;;;;;;13.80;5.13;;;;;;;2.02;87.70;101149.38;4191383;28;20044;-71
2022/03/19 07:55:29;;;;;;;14.90;6.38;;;;;;;2.11;87.44;101142.38;4192406;28;20047;-71
2022/03/19 07:57:29;;;;;;;13.35;5.03;;;;;;;2.12;87.37;101138.56;4193086;28;20036;-71
2022/03/19 07:59:30;;;;;;;9.20;4.07;;;;;;;2.16;87.60;101137.81;4197378;28;20047;-72
2022/03/19 08:01:31;;;;;;;7.30;4.43;;;;;;;2.22;88.33;101141.38;4191146;28;20040;-71
2022/03/19 08:03:31;;;;;;;13.48;5.15;;;;;;;2.33;87.82;101139.59;4192825;28;20048;-71
2022/03/19 08:05:32;;;;;;;14.93;4.78;;;;;;;2.31;85.96;101142.56;4191999;28;20043;-71
2022/03/19 08:07:32;;;;;;;10.27;5.10;;;;;;;2.36;86.24;101133.59;4190164;28;20420;-72
2022/03/19 08:09:32;;;;;;;13.18;5.57;;;;;;;2.46;85.82;101129.06;4190562;28;20044;-71
2022/03/19 08:11:33;;;;;;;8.27;5.00;;;;;;;2.45;85.39;101129.31;4189305;28;20048;-72
2022/03/19 08:13:34;;;;;;;11.55;5.28;;;;;;;2.55;86.26;101126.66;4195120;28;20047;-72
2022/03/19 08:15:39;;;;;;;11.63;6.00;;;;;;;2.64;85.22;101122.38;4193902;28;20044;-72
2022/03/19 08:17:41;;;;;;;15.50;6.97;;;;;;;2.73;85.20;101122.72;4192372;28;20036;-72
2022/03/19 08:19:42;;;;;;;16.13;7.20;;;;;;;2.83;85.54;101127.44;4193557;28;20619;-72
2022/03/19 08:21:45;;;;;;;15.45;7.72;;;;;;;2.92;84.64;101120.41;4193305;28;20047;-72
2022/03/19 08:23:48;;;;;;;19.58;9.45;;;;;;;3.02;84.20;101124.03;4192959;28;20040;-72
2022/03/19 08:25:49;;;;;;;13.63;7.78;;;;;;;3.13;83.24;101115.88;4196316;28;20071;-72
2022/03/19 08:27:50;;;;;;;14.75;7.22;;;;;;;3.24;82.29;101117.59;4198002;28;20071;-72
2022/03/19 08:29:52;;;;;;;20.80;8.60;;;;;;;3.30;81.20;101116.50;4198198;28;20052;-72
2022/03/19 08:31:53;;;;;;;18.00;8.90;;;;;;;3.37;80.77;101117.94;4194026;28;20738;-72
2022/03/19 08:33:55;;;;;;;14.88;6.72;;;;;;;3.37;79.91;101111.63;4200939;28;20066;-72
2022/03/19 08:35:55;;;;;;;15.18;7.43;;;;;;;3.39;77.85;101109.44;4197197;28;20132;-72
2022/03/19 08:40:18;;;;;;;13.77;6.75;;;;;;;3.58;78.68;101105.16;4194176;28;20047;-72
2022/03/19 08:42:19;;;;;;;14.70;7.15;;;;;;;3.54;78.35;101098.56;4198218;28;20035;-72
2022/03/19 08:44:19;;;;;;;13.40;6.47;;;;;;;3.53;78.51;101090.63;4196831;28;20032;-72
2022/03/19 08:46:19;;;;;;;11.68;6.65;;;;;;;3.52;78.83;101098.03;4194822;28;20031;-72
2022/03/19 08:48:20;;;;;;;17.02;7.70;;;;;;;3.53;80.29;101102.41;4192400;28;20040;-72
2022/03/19 08:50:21;;;;;;;19.23;6.10;;;;;;;3.60;79.94;101102.97;4192130;28;20044;-72
2022/03/19 08:52:21;;;;;;;11.30;6.03;;;;;;;3.80;79.99;101102.22;4197208;28;20811;-72
2022/03/19 08:54:22;;;;;;;13.98;6.53;;;;;;;3.89;77.83;101106.09;4194033;28;20048;-71
2022/03/19 08:56:22;;;;;;;15.45;7.80;;;;;;;3.93;77.91;101093.50;4198712;28;20457;-71
2022/03/19 08:58:22;;;;;;;13.32;7.45;;;;;;;4.11;76.39;101100.38;4197212;28;20060;-72
2022/03/19 09:00:23;;;;;;;11.93;7.30;;;;;;;4.13;75.20;101105.59;4198468;28;20083;-72
2022/03/19 09:02:23;;;;;;;16.35;8.27;;;;;;;4.04;75.27;101097.06;4203041;28;20123;-71
2022/03/19 09:04:23;;;;;;;12.80;8.15;;;;;;;4.07;74.67;101098.47;4188393;28;20154;-72
2022/03/19 09:06:24;;;;;;;16.42;8.07;;;;;;;4.14;73.19;101093.56;4197861;28;20040;-72
2022/03/19 09:08:26;;;;;;;15.38;8.93;;;;;;;4.27;73.04;101097.66;4194998;28;20037;-72
2022/03/19 09:10:26;;;;;;;15.23;8.38;;;;;;;4.28;72.89;101097.38;4191904;28;20127;-71
2022/03/19 09:12:26;;;;;;;12.32;8.70;;;;;;;4.20;72.41;101087.78;4198041;28;20592;-71
2022/03/19 09:14:27;;;;;;;13.90;8.95;;;;;;;4.27;73.85;101093.00;4199451;28;20690;-72
2022/03/19 09:16:27;;;;;;;16.35;7.57;;;;;;;4.28;71.68;101075.47;4195497;28;20040;-72
2022/03/19 09:18:28;;;;;;;14.00;7.15;;;;;;;4.35;71.60;101091.66;4190649;28;20048;-72
2022/03/19 09:20:28;;;;;;;11.45;7.15;;;;;;;4.35;71.96;101086.97;4190256;28;20341;-72
2022/03/19 09:22:30;;;;;;;13.25;7.65;;;;;;;4.24;70.82;101082.59;4195851;28;20048;-72
2022/03/19 09:24:30;;;;;;;17.35;7.03;;;;;;;4.35;71.73;101078.75;4194608;28;20118;-72
2022/03/19 09:26:31;;;;;;;12.85;6.25;;;;;;;4.34;71.81;101065.34;4190592;28;20227;-72
2022/03/19 09:28:31;;;;;;;11.40;6.30;;;;;;;4.40;72.40;101092.47;4196203;28;20495;-72
2022/03/19 09:30:31;;;;;;;12.48;5.57;;;;;;;4.47;70.79;101079.34;4196265;28;20047;-72
2022/03/19 09:32:32;;;;;;;11.65;5.10;;;;;;;4.50;69.73;101075.22;4196898;28;20055;-72
2022/03/19 09:34:32;;;;;;;7.90;5.00;;;;;;;4.60;69.66;101072.47;4195904;28;20558;-72